createdAt,value
2023-04-22T00:00:22.055Z,85.90
2023-04-22T00:02:25.625Z,85.80
2023-04-22T00:04:29.286Z,85.90
2023-04-22T00:06:32.915Z,86.40
2023-04-22T00:08:36.182Z,86.40
2023-04-22T00:10:39.317Z,87.00
2023-04-22T00:12:42.754Z,88.00
2023-04-22T00:14:47.456Z,87.30
2023-04-22T00:16:50.890Z,87.00
2023-04-22T00:18:54.035Z,87.40
2023-04-22T00:20:57.453Z,86.60
2023-04-22T00:23:00.817Z,86.80
2023-04-22T00:25:04.193Z,87.30
2023-04-22T00:27:08.199Z,87.20
2023-04-22T00:29:11.532Z,87.60
2023-04-22T00:31:16.508Z,87.30
2023-04-22T00:33:19.705Z,87.00
2023-04-22T00:35:23.254Z,87.00
2023-04-22T00:37:27.195Z,86.70
2023-04-22T00:39:30.650Z,86.60
2023-04-22T00:41:34.641Z,86.70
2023-04-22T00:43:38.273Z,87.00
2023-04-22T00:47:48.315Z,86.50
2023-04-22T00:49:52.047Z,86.60
2023-04-22T00:51:55.632Z,86.10
2023-04-22T00:53:59.375Z,86.30
2023-04-22T00:56:02.801Z,86.00
2023-04-22T00:58:06.463Z,86.90
2023-04-22T01:00:11.149Z,88.00
2023-04-22T01:02:14.623Z,88.30
2023-04-22T01:04:19.958Z,88.00
2023-04-22T01:06:25.051Z,87.10
2023-04-22T01:08:30.986Z,87.60
2023-04-22T01:10:34.388Z,88.60
2023-04-22T01:12:37.786Z,88.00
2023-04-22T01:14:41.492Z,87.50
2023-04-22T01:16:46.602Z,87.40
2023-04-22T01:18:50.496Z,87.30
2023-04-22T01:20:56.250Z,87.50
2023-04-22T01:23:05.215Z,87.60
2023-04-22T01:25:11.544Z,88.30
2023-04-22T01:27:15.085Z,88.50
2023-04-22T01:29:18.715Z,88.30
2023-04-22T01:31:22.243Z,87.70
2023-04-22T01:33:25.644Z,87.90
2023-04-22T01:35:30.586Z,88.20
2023-04-22T01:37:33.940Z,87.80
2023-04-22T01:39:37.724Z,88.20
2023-04-22T01:41:43.128Z,88.80
2023-04-22T01:43:46.835Z,88.90
2023-04-22T01:45:50.044Z,89.20
2023-04-22T01:47:53.341Z,89.20
2023-04-22T01:49:56.999Z,88.80
2023-04-22T01:52:00.314Z,88.90
2023-04-22T01:54:04.233Z,88.80
2023-04-22T01:56:08.199Z,88.70
2023-04-22T01:58:12.963Z,88.90
2023-04-22T02:00:16.571Z,88.90
2023-04-22T02:02:19.806Z,88.80
2023-04-22T02:04:23.023Z,88.20
2023-04-22T02:06:27.458Z,88.20
2023-04-22T02:08:30.621Z,88.80
2023-04-22T02:10:34.020Z,88.70
2023-04-22T02:12:37.278Z,89.60
2023-04-22T02:14:42.084Z,90.00
2023-04-22T02:16:45.242Z,89.60
2023-04-22T02:18:48.891Z,89.10
2023-04-22T02:20:52.025Z,89.40
2023-04-22T02:22:55.165Z,89.70
2023-04-22T02:24:58.789Z,89.20
2023-04-22T02:27:01.863Z,89.20
2023-04-22T02:29:05.046Z,90.00
2023-04-22T02:31:10.034Z,90.00
2023-04-22T02:33:13.701Z,89.50
2023-04-22T02:35:17.651Z,89.40
2023-04-22T02:37:22.855Z,89.30
2023-04-22T02:39:27.320Z,89.40
2023-04-22T02:41:30.738Z,89.30
2023-04-22T02:43:34.147Z,89.50
2023-04-22T02:45:37.586Z,89.50
2023-04-22T02:47:42.256Z,89.40
2023-04-22T02:49:45.428Z,89.90
2023-04-22T02:51:49.004Z,90.40
2023-04-22T02:53:52.323Z,90.40
2023-04-22T02:55:57.021Z,90.20
2023-04-22T02:58:00.283Z,90.60
2023-04-22T03:00:04.846Z,90.70
2023-04-22T03:02:10.215Z,90.80
2023-04-22T03:04:16.417Z,90.60
2023-04-22T03:06:20.047Z,90.10
2023-04-22T03:08:23.955Z,90.00
2023-04-22T03:10:27.520Z,89.70
2023-04-22T03:12:30.666Z,90.10
2023-04-22T03:14:34.213Z,90.30
2023-04-22T03:16:38.701Z,90.40
2023-04-22T03:18:42.128Z,90.60
2023-04-22T03:20:47.036Z,90.80
2023-04-22T03:22:50.537Z,90.90
2023-04-22T03:24:53.730Z,90.80
2023-04-22T03:26:57.226Z,90.50
2023-04-22T03:29:00.643Z,90.30
2023-04-22T03:31:04.023Z,90.00
2023-04-22T03:33:07.317Z,89.70
2023-04-22T03:35:11.352Z,89.50
2023-04-22T03:37:16.143Z,89.50
2023-04-22T03:39:19.962Z,89.50
2023-04-22T03:41:23.538Z,90.10
2023-04-22T03:43:27.127Z,89.90
2023-04-22T03:45:30.825Z,89.70
2023-04-22T03:47:34.348Z,90.20
2023-04-22T03:49:37.969Z,90.00
2023-04-22T03:51:41.700Z,89.50
2023-04-22T03:53:46.483Z,89.30
2023-04-22T03:55:49.928Z,88.50
2023-04-22T03:57:53.421Z,89.00
2023-04-22T03:59:56.731Z,89.50
2023-04-22T04:02:00.350Z,89.30
2023-04-22T04:04:05.031Z,89.80
2023-04-22T04:06:09.761Z,89.90
2023-04-22T04:08:13.295Z,90.20
2023-04-22T04:10:18.039Z,90.00
2023-04-22T04:12:21.258Z,89.90
2023-04-22T04:14:25.063Z,90.10
2023-04-22T04:16:28.407Z,90.30
2023-04-22T04:18:32.701Z,90.60
2023-04-22T04:20:36.052Z,90.60
2023-04-22T04:22:40.890Z,90.40
2023-04-22T04:24:44.185Z,90.20
2023-04-22T04:26:49.239Z,89.90
2023-04-22T04:28:52.595Z,90.10
2023-04-22T04:30:55.876Z,90.00
2023-04-22T04:32:59.198Z,89.70
2023-04-22T04:35:03.272Z,90.30
2023-04-22T04:37:06.560Z,90.40
2023-04-22T04:39:09.859Z,90.30
2023-04-22T04:41:14.668Z,90.40
2023-04-22T04:43:19.803Z,90.40
2023-04-22T04:45:23.340Z,90.30
2023-04-22T04:47:26.769Z,90.10
2023-04-22T04:49:30.692Z,89.80
2023-04-22T04:51:34.050Z,89.50
2023-04-22T04:53:37.563Z,89.00
2023-04-22T04:55:41.123Z,88.60
2023-04-22T04:57:46.337Z,88.30
2023-04-22T04:59:50.917Z,88.20
2023-04-22T05:01:54.753Z,87.20
2023-04-22T05:03:58.191Z,86.60
2023-04-22T05:06:01.733Z,86.00
2023-04-22T05:08:04.961Z,85.10
2023-04-22T05:10:09.171Z,85.00
2023-04-22T05:12:12.725Z,83.30
2023-04-22T05:14:15.856Z,82.50
2023-04-22T05:16:20.899Z,82.70
2023-04-22T05:18:24.329Z,81.50
2023-04-22T05:20:28.218Z,82.10
2023-04-22T05:22:31.781Z,80.70
2023-04-22T05:24:35.457Z,79.80
2023-04-22T05:26:38.970Z,79.80
2023-04-22T05:28:42.362Z,78.60
2023-04-22T05:30:45.534Z,77.00
2023-04-22T05:32:55.064Z,74.40
2023-04-22T05:34:58.744Z,75.10
2023-04-22T05:37:02.183Z,73.90
2023-04-22T05:39:06.277Z,73.90
2023-04-22T05:41:09.871Z,73.70
2023-04-22T05:43:13.544Z,71.00
2023-04-22T05:45:17.869Z,68.80
2023-04-22T05:47:21.367Z,67.20
2023-04-22T05:49:26.321Z,64.70
2023-04-22T05:51:29.906Z,62.40
2023-04-22T05:53:33.206Z,63.10
2023-04-22T05:55:36.814Z,60.70
2023-04-22T05:57:40.086Z,72.50
2023-04-22T05:59:43.512Z,68.10
2023-04-22T06:01:46.883Z,68.70
2023-04-22T06:03:50.415Z,67.70
2023-04-22T06:05:55.416Z,67.00
2023-04-22T06:07:58.987Z,67.80
2023-04-22T06:10:05.408Z,69.80
2023-04-22T06:12:09.287Z,67.00
2023-04-22T06:14:13.179Z,65.30
2023-04-22T06:16:16.390Z,66.90
2023-04-22T06:18:21.783Z,75.70
2023-04-22T06:20:24.987Z,77.80
2023-04-22T06:22:29.690Z,65.30
2023-04-22T06:24:33.117Z,66.60
2023-04-22T06:30:43.934Z,76.90
2023-04-22T06:32:47.261Z,47.00
2023-04-22T06:34:50.650Z,43.30
2023-04-22T06:36:54.872Z,41.20
2023-04-22T06:38:59.541Z,42.90
2023-04-22T06:41:02.711Z,40.80
2023-04-22T06:43:06.254Z,38.50
2023-04-22T06:45:13.099Z,37.00
2023-04-22T06:47:16.557Z,36.70
2023-04-22T06:49:20.007Z,37.80
2023-04-22T06:51:23.383Z,36.60
2023-04-22T06:53:26.666Z,37.40
2023-04-22T06:55:31.287Z,37.00
2023-04-22T06:57:34.715Z,35.80
2023-04-22T06:59:38.109Z,35.30
2023-04-22T07:01:41.855Z,30.80
2023-04-22T07:03:45.155Z,33.20
2023-04-22T07:05:49.545Z,34.00
2023-04-22T07:07:52.726Z,32.70
2023-04-22T07:09:56.126Z,28.90
2023-04-22T07:12:01.353Z,32.20
2023-04-22T07:14:04.756Z,33.20
2023-04-22T07:16:08.389Z,30.70
2023-04-22T07:18:11.606Z,42.70
2023-04-22T07:20:14.980Z,29.70
2023-04-22T07:22:18.393Z,31.80
2023-04-22T07:24:21.505Z,28.80
2023-04-22T07:26:24.961Z,28.30
2023-04-22T07:28:29.726Z,25.40
2023-04-22T07:30:32.890Z,25.90
2023-04-22T07:32:36.544Z,27.90
2023-04-22T07:34:39.950Z,27.00
2023-04-22T07:36:43.408Z,27.00
2023-04-22T07:38:46.646Z,27.00
2023-04-22T07:40:50.244Z,27.60
2023-04-22T07:42:53.460Z,26.80
2023-04-22T07:44:58.439Z,25.00
2023-04-22T07:47:01.807Z,25.70
2023-04-22T07:49:05.020Z,25.30
2023-04-22T07:51:08.279Z,27.40
2023-04-22T07:53:11.964Z,27.00
2023-04-22T07:55:15.486Z,27.50
2023-04-22T07:57:21.802Z,29.80
2023-04-22T07:59:25.360Z,28.50
2023-04-22T08:01:30.325Z,28.20
2023-04-22T08:03:34.034Z,28.40
2023-04-22T08:05:37.918Z,27.50
2023-04-22T08:07:41.893Z,27.30
2023-04-22T08:09:45.258Z,28.00
2023-04-22T08:11:48.649Z,28.20
2023-04-22T08:13:52.125Z,27.30
2023-04-22T08:15:55.348Z,26.70
2023-04-22T08:18:00.237Z,26.60
2023-04-22T08:20:06.581Z,27.30
2023-04-22T08:22:13.463Z,25.80
2023-04-22T08:24:17.189Z,27.70
2023-04-22T08:26:20.419Z,28.20
2023-04-22T08:28:24.135Z,25.70
2023-04-22T08:30:27.305Z,26.00
2023-04-22T08:32:31.021Z,26.30
2023-04-22T08:34:37.104Z,23.60
2023-04-22T08:36:41.332Z,24.10
2023-04-22T08:38:44.745Z,24.60
2023-04-22T08:40:49.040Z,26.40
2023-04-22T08:42:53.518Z,27.00
2023-04-22T08:44:57.124Z,24.40
2023-04-22T08:47:02.932Z,24.80
2023-04-22T08:49:06.813Z,26.30
2023-04-22T08:51:12.596Z,24.40
2023-04-22T08:53:15.854Z,24.70
2023-04-22T08:55:20.549Z,25.40
2023-04-22T08:57:25.123Z,25.00
2023-04-22T08:59:29.412Z,22.60
2023-04-22T09:01:33.315Z,24.50
2023-04-22T09:03:38.237Z,24.30
2023-04-22T09:05:42.318Z,24.40
2023-04-22T09:07:46.874Z,23.10
2023-04-22T09:09:50.428Z,22.20
2023-04-22T09:11:53.550Z,21.90
2023-04-22T09:13:57.218Z,24.00
2023-04-22T09:16:04.817Z,23.90
2023-04-22T09:18:11.002Z,24.00
2023-04-22T09:20:16.049Z,23.70
2023-04-22T09:22:19.526Z,22.90
2023-04-22T09:24:24.290Z,23.10
2023-04-22T09:26:28.276Z,23.20
2023-04-22T09:28:31.975Z,23.50
2023-04-22T09:30:37.775Z,22.50
2023-04-22T09:32:41.647Z,23.90
2023-04-22T09:34:53.736Z,24.20
2023-04-22T09:36:57.323Z,24.10
2023-04-22T09:39:04.610Z,23.70
2023-04-22T09:41:12.513Z,23.20
2023-04-22T09:43:20.201Z,23.90
2023-04-22T09:45:31.584Z,26.20
2023-04-22T09:47:37.980Z,25.60
2023-04-22T09:49:41.783Z,25.90
2023-04-22T09:51:45.031Z,25.50
2023-04-22T09:54:00.541Z,23.40
2023-04-22T09:56:05.985Z,24.50
2023-04-22T09:58:15.744Z,24.30
2023-04-22T10:00:19.438Z,23.80
2023-04-22T10:02:30.479Z,23.20
2023-04-22T10:04:34.751Z,23.70
2023-04-22T10:06:39.086Z,24.80
2023-04-22T10:08:45.437Z,22.10
2023-04-22T10:10:48.726Z,21.40
2023-04-22T10:12:53.312Z,25.30
2023-04-22T10:14:57.877Z,26.30
2023-04-22T10:17:02.905Z,23.80
2023-04-22T10:19:08.487Z,24.40
2023-04-22T10:21:12.373Z,21.60
2023-04-22T10:23:19.656Z,22.90
2023-04-22T10:25:25.622Z,23.60
2023-04-22T10:27:28.984Z,24.20
2023-04-22T10:29:39.371Z,25.10
2023-04-22T10:31:45.432Z,22.80
2023-04-22T10:33:49.064Z,24.10
2023-04-22T10:36:11.592Z,24.10
2023-04-22T10:38:15.499Z,25.80
2023-04-22T10:40:20.013Z,23.90
2023-04-22T10:42:23.188Z,23.80
2023-04-22T10:44:30.896Z,22.40
2023-04-22T10:47:04.427Z,23.10
2023-04-22T10:49:09.106Z,24.80
2023-04-22T10:51:40.365Z,24.50
2023-04-22T10:53:43.942Z,23.10
2023-04-22T10:55:52.754Z,25.50
2023-04-22T10:57:56.122Z,26.60
2023-04-22T11:00:00.492Z,26.90
2023-04-22T11:02:06.895Z,25.00
2023-04-22T11:04:23.875Z,23.80
2023-04-22T11:06:30.295Z,26.20
2023-04-22T11:08:33.463Z,26.00
2023-04-22T11:10:45.390Z,26.00
2023-04-22T11:12:51.670Z,26.40
2023-04-22T11:14:55.514Z,27.80
2023-04-22T11:16:59.048Z,29.60
2023-04-22T11:19:04.333Z,29.70
2023-04-22T11:21:09.429Z,32.70
2023-04-22T11:23:12.960Z,33.90
2023-04-22T11:25:16.456Z,28.90
2023-04-22T11:27:26.469Z,32.90
2023-04-22T11:29:29.846Z,28.40
2023-04-22T11:31:33.600Z,28.70
2023-04-22T11:33:38.602Z,33.30
2023-04-22T11:35:44.002Z,31.50
2023-04-22T11:37:49.302Z,37.40
2023-04-22T11:40:16.813Z,29.40
2023-04-22T11:42:16.109Z,31.40
2023-04-22T11:44:25.747Z,33.80
2023-04-22T11:46:38.866Z,31.50
2023-04-22T11:48:42.156Z,30.00
2023-04-22T11:50:48.232Z,34.00
2023-04-22T11:52:55.602Z,30.60
2023-04-22T11:55:01.819Z,29.60
2023-04-22T11:57:06.852Z,28.00
2023-04-22T11:59:11.511Z,28.40
2023-04-22T12:01:15.574Z,32.40
2023-04-22T12:03:20.901Z,30.20
2023-04-22T12:05:34.818Z,31.70
2023-04-22T12:07:40.196Z,29.40
2023-04-22T12:09:43.524Z,28.20
2023-04-22T12:11:47.272Z,29.20
2023-04-22T12:13:51.226Z,30.00
2023-04-22T12:15:56.672Z,30.00
2023-04-22T12:18:02.650Z,27.00
2023-04-22T12:20:07.813Z,27.60
2023-04-22T12:22:12.508Z,28.30
2023-04-22T12:24:22.344Z,27.70
2023-04-22T12:26:27.718Z,27.60
2023-04-22T12:28:31.522Z,29.40
2023-04-22T12:30:35.066Z,29.20
2023-04-22T12:32:38.556Z,30.00
2023-04-22T12:34:42.014Z,31.70
2023-04-22T12:36:45.385Z,32.10
2023-04-22T12:38:48.964Z,28.90
2023-04-22T12:40:53.605Z,28.60
2023-04-22T12:42:57.166Z,32.80
2023-04-22T12:45:00.474Z,32.90
2023-04-22T12:47:03.967Z,30.70
2023-04-22T12:49:07.210Z,29.00
2023-04-22T12:51:10.837Z,31.70
2023-04-22T12:53:14.069Z,32.10
2023-04-22T12:55:18.147Z,34.70
2023-04-22T12:57:23.112Z,32.50
2023-04-22T12:59:26.623Z,33.50
2023-04-22T13:01:30.508Z,34.80
2023-04-22T13:03:33.923Z,37.60
2023-04-22T13:05:37.310Z,32.10
2023-04-22T13:07:42.503Z,32.40
2023-04-22T13:09:46.025Z,38.00
2023-04-22T13:11:50.095Z,34.30
2023-04-22T13:13:55.020Z,32.10
2023-04-22T13:15:58.572Z,32.20
2023-04-22T13:18:02.287Z,32.90
2023-04-22T13:20:09.619Z,36.50
2023-04-22T13:22:12.906Z,37.20
2023-04-22T13:24:16.370Z,34.00
2023-04-22T13:26:20.118Z,36.90
2023-04-22T13:28:23.404Z,35.80
2023-04-22T13:30:28.232Z,34.70
2023-04-22T13:32:31.486Z,37.20
2023-04-22T13:34:34.918Z,35.00
2023-04-22T13:36:38.327Z,32.70
2023-04-22T13:38:41.880Z,35.30
2023-04-22T13:40:45.375Z,34.80
2023-04-22T13:42:49.169Z,34.40
2023-04-22T13:44:52.575Z,33.60
2023-04-22T13:46:57.646Z,32.80
2023-04-22T13:49:00.886Z,34.70
2023-04-22T13:51:04.162Z,34.50
2023-04-22T13:53:10.430Z,39.80
2023-04-22T13:55:13.726Z,40.70
2023-04-22T13:57:18.578Z,39.20
2023-04-22T13:59:22.205Z,37.40
2023-04-22T14:01:26.627Z,40.10
2023-04-22T14:03:32.514Z,37.80
2023-04-22T14:05:35.838Z,39.90
2023-04-22T14:07:39.131Z,37.50
2023-04-22T14:09:43.057Z,36.90
2023-04-22T14:11:46.516Z,39.50
2023-04-22T14:13:50.266Z,35.40
2023-04-22T14:15:53.523Z,37.70
2023-04-22T14:17:57.251Z,36.30
2023-04-22T14:20:02.269Z,36.50
2023-04-22T14:22:06.626Z,36.20
2023-04-22T14:24:10.366Z,34.90
2023-04-22T14:26:14.433Z,36.90
2023-04-22T14:28:18.451Z,35.10
2023-04-22T14:30:22.022Z,35.00
2023-04-22T14:32:25.895Z,35.40
2023-04-22T14:34:29.538Z,36.80
2023-04-22T14:36:34.269Z,36.30
2023-04-22T14:38:37.819Z,35.90
2023-04-22T14:40:41.494Z,35.60
2023-04-22T14:42:45.509Z,38.50
2023-04-22T14:44:49.571Z,38.50
2023-04-22T14:46:53.013Z,35.70
2023-04-22T14:48:56.527Z,38.10
2023-04-22T14:51:01.248Z,37.30
2023-04-22T14:53:06.212Z,39.10
2023-04-22T14:55:24.016Z,37.40
2023-04-22T14:57:27.577Z,37.90
2023-04-22T14:59:30.870Z,39.50
2023-04-22T15:01:34.459Z,36.80
2023-04-22T15:03:37.994Z,38.40
2023-04-22T15:05:41.407Z,38.00
2023-04-22T15:07:44.649Z,35.70
2023-04-22T15:09:49.490Z,36.40
2023-04-22T15:11:54.853Z,38.10
2023-04-22T15:13:58.049Z,39.70
2023-04-22T15:16:01.219Z,38.30
2023-04-22T15:18:05.521Z,39.60
2023-04-22T15:20:09.865Z,38.20
2023-04-22T15:22:13.335Z,39.30
2023-04-22T15:24:16.647Z,36.20
2023-04-22T15:26:21.626Z,36.50
2023-04-22T15:28:25.434Z,39.70
2023-04-22T15:30:28.922Z,38.70
2023-04-22T15:32:32.505Z,39.50
2023-04-22T15:34:35.889Z,39.10
2023-04-22T15:36:39.304Z,38.30
2023-04-22T15:38:42.900Z,39.20
2023-04-22T15:40:46.093Z,38.30
2023-04-22T15:42:50.833Z,38.00
2023-04-22T15:44:54.212Z,38.90
2023-04-22T15:46:59.217Z,40.00
2023-04-22T15:49:03.412Z,38.30
2023-04-22T15:51:06.949Z,37.00
2023-04-22T15:53:10.539Z,37.70
2023-04-22T15:55:13.988Z,37.70
2023-04-22T15:57:17.126Z,38.80
2023-04-22T15:59:22.026Z,38.10
2023-04-22T16:01:25.545Z,39.50
2023-04-22T16:03:29.493Z,40.40
2023-04-22T16:05:34.792Z,39.80
2023-04-22T16:07:38.283Z,40.60
2023-04-22T16:09:41.975Z,41.70
2023-04-22T16:11:45.637Z,40.50
2023-04-22T16:13:49.077Z,41.10
2023-04-22T16:15:53.667Z,40.20
2023-04-22T16:17:56.994Z,41.30
2023-04-22T16:20:00.544Z,42.50
2023-04-22T16:22:03.842Z,42.70
2023-04-22T16:24:07.570Z,42.00
2023-04-22T16:26:11.439Z,42.50
2023-04-22T16:28:14.918Z,42.60
2023-04-22T16:30:18.497Z,42.40
2023-04-22T16:32:23.259Z,43.10
2023-04-22T16:34:26.443Z,41.90
2023-04-22T16:36:30.148Z,42.40
2023-04-22T16:38:33.380Z,43.00
2023-04-22T16:40:37.874Z,43.40
2023-04-22T16:42:41.146Z,44.10
2023-04-22T16:44:47.064Z,44.30
2023-04-22T16:46:50.486Z,44.70
2023-04-22T16:48:55.272Z,44.60
2023-04-22T16:50:58.490Z,45.10
2023-04-22T16:53:01.760Z,45.70
2023-04-22T16:55:05.680Z,45.60
2023-04-22T16:57:10.419Z,46.40
2023-04-22T16:59:14.722Z,46.90
2023-04-22T17:01:18.288Z,47.00
2023-04-22T17:03:22.449Z,48.00
2023-04-22T17:05:27.326Z,48.40
2023-04-22T17:07:33.523Z,48.10
2023-04-22T17:09:36.751Z,48.40
2023-04-22T17:11:40.424Z,49.50
2023-04-22T17:13:43.785Z,49.80
2023-04-22T17:15:47.086Z,50.40
2023-04-22T17:17:50.533Z,50.90
2023-04-22T17:19:53.735Z,50.60
2023-04-22T17:21:58.465Z,50.90
2023-04-22T17:24:02.322Z,51.40
2023-04-22T17:26:05.545Z,52.30
2023-04-22T17:28:11.030Z,52.40
2023-04-22T17:30:15.083Z,52.80
2023-04-22T17:32:18.393Z,52.10
2023-04-22T17:34:21.906Z,52.50
2023-04-22T17:36:25.278Z,53.00
2023-04-22T17:38:30.128Z,53.00
2023-04-22T17:40:33.523Z,53.60
2023-04-22T17:42:45.999Z,54.60
2023-04-22T17:44:49.896Z,54.90
2023-04-22T17:46:53.347Z,54.70
2023-04-22T17:48:56.616Z,55.80
2023-04-22T17:51:01.470Z,56.50
2023-04-22T17:53:04.806Z,57.00
2023-04-22T17:55:11.243Z,57.40
2023-04-22T17:57:14.652Z,58.20
2023-04-22T17:59:17.895Z,58.60
2023-04-22T18:01:21.466Z,58.90
2023-04-22T18:03:25.012Z,59.40
2023-04-22T18:05:28.649Z,59.80
2023-04-22T18:07:32.026Z,60.40
2023-04-22T18:09:35.224Z,61.90
2023-04-22T18:11:40.049Z,62.20
2023-04-22T18:13:43.735Z,62.00
2023-04-22T18:15:47.200Z,61.60
2023-04-22T18:17:50.611Z,62.00
2023-04-22T18:20:00.070Z,63.20
2023-04-22T18:22:09.615Z,63.40
2023-04-22T18:24:12.997Z,63.10
2023-04-22T18:26:16.584Z,63.30
2023-04-22T18:28:21.621Z,63.70
2023-04-22T18:30:25.560Z,64.80
2023-04-22T18:32:29.346Z,64.70
2023-04-22T18:34:32.815Z,64.50
2023-04-22T18:36:36.243Z,64.70
2023-04-22T18:38:40.480Z,64.70
2023-04-22T18:40:43.884Z,65.50
2023-04-22T18:42:48.043Z,65.00
2023-04-22T18:44:53.346Z,64.90
2023-04-22T18:46:56.553Z,65.80
2023-04-22T18:48:59.936Z,66.30
2023-04-22T18:51:03.184Z,66.20
2023-04-22T18:53:06.453Z,66.70
2023-04-22T18:55:10.762Z,66.70
2023-04-22T18:57:14.223Z,66.90
2023-04-22T18:59:17.763Z,66.40
2023-04-22T19:01:22.909Z,66.70
2023-04-22T19:03:26.543Z,68.00
2023-04-22T19:05:30.550Z,68.60
2023-04-22T19:07:33.921Z,68.90
2023-04-22T19:09:37.246Z,68.60
2023-04-22T19:11:40.875Z,68.30
2023-04-22T19:13:44.139Z,68.50
2023-04-22T19:15:47.601Z,69.40
2023-04-22T19:17:52.478Z,69.70
2023-04-22T19:19:56.366Z,69.00
2023-04-22T19:21:59.715Z,69.70
2023-04-22T19:24:03.187Z,69.40
2023-04-22T19:26:09.531Z,69.00
2023-04-22T19:28:13.216Z,70.00
2023-04-22T19:30:16.689Z,69.80
2023-04-22T19:32:20.816Z,70.00
2023-04-22T19:34:27.234Z,68.80
2023-04-22T19:36:31.766Z,69.00
2023-04-22T19:38:35.071Z,68.90
2023-04-22T19:40:38.636Z,69.10
2023-04-22T19:42:42.289Z,68.70
2023-04-22T19:44:48.225Z,69.10
2023-04-22T19:46:52.451Z,69.30
2023-04-22T19:48:56.601Z,69.80
2023-04-22T19:51:01.615Z,70.20
2023-04-22T19:53:06.415Z,69.80
2023-04-22T19:55:11.499Z,70.80
2023-04-22T19:57:15.096Z,71.30
2023-04-22T19:59:18.506Z,70.60
2023-04-22T20:01:22.559Z,72.00
2023-04-22T20:03:27.443Z,72.60
2023-04-22T20:05:31.587Z,72.70
2023-04-22T20:07:37.370Z,72.40
2023-04-22T20:09:41.333Z,72.40
2023-04-22T20:11:45.009Z,74.50
2023-04-22T20:13:50.569Z,74.60
2023-04-22T20:15:54.079Z,74.30
2023-04-22T20:17:57.840Z,73.60
2023-04-22T20:20:04.893Z,73.50
2023-04-22T20:22:11.577Z,73.40
2023-04-22T20:24:19.697Z,73.90
2023-04-22T20:26:23.369Z,73.50
2023-04-22T20:28:38.420Z,73.10
2023-04-22T20:30:42.410Z,73.10
2023-04-22T20:32:45.855Z,74.00
2023-04-22T20:34:49.941Z,73.60
2023-04-22T20:36:54.918Z,74.40
2023-04-22T20:39:03.752Z,73.70
2023-04-22T20:41:09.895Z,75.20
2023-04-22T20:43:14.120Z,75.50
2023-04-22T20:45:18.242Z,74.80
2023-04-22T20:47:21.628Z,74.50
2023-04-22T20:49:24.822Z,73.70
2023-04-22T20:51:29.543Z,73.90
2023-04-22T20:53:32.780Z,74.20
2023-04-22T20:55:37.148Z,74.00
2023-04-22T20:57:42.257Z,73.90
2023-04-22T20:59:45.488Z,73.90
2023-04-22T21:01:48.942Z,74.90
2023-04-22T21:03:53.513Z,74.90
2023-04-22T21:05:58.702Z,74.40
2023-04-22T21:08:02.231Z,74.40
2023-04-22T21:10:06.201Z,75.20
2023-04-22T21:12:11.005Z,75.30
2023-04-22T21:14:16.667Z,75.00
2023-04-22T21:16:20.659Z,74.80
2023-04-22T21:18:26.000Z,74.80
2023-04-22T21:20:32.253Z,74.60
2023-04-22T21:22:36.426Z,75.40
2023-04-22T21:24:41.610Z,75.90
2023-04-22T21:26:46.203Z,75.60
2023-04-22T21:28:50.136Z,75.80
2023-04-22T21:30:55.579Z,75.70
2023-04-22T21:32:58.767Z,76.70
2023-04-22T21:35:01.970Z,76.40
2023-04-22T21:37:06.863Z,76.40
2023-04-22T21:39:10.273Z,76.30
2023-04-22T21:41:13.940Z,76.10
2023-04-22T21:43:17.178Z,76.00
2023-04-22T21:45:20.730Z,76.20
2023-04-22T21:47:25.322Z,76.60
2023-04-22T21:49:28.524Z,76.80
2023-04-22T21:51:32.510Z,77.40
2023-04-22T21:53:35.949Z,77.70
2023-04-22T21:55:39.721Z,78.80
2023-04-22T21:57:42.957Z,78.20
2023-04-22T21:59:46.149Z,77.60
2023-04-22T22:01:49.683Z,77.90
2023-04-22T22:03:54.732Z,78.30
2023-04-22T22:05:58.638Z,78.90
2023-04-22T22:08:01.901Z,78.50
2023-04-22T22:10:06.383Z,78.60
2023-04-22T22:12:10.749Z,78.60
2023-04-22T22:14:14.024Z,78.50
2023-04-22T22:16:18.323Z,78.40
2023-04-22T22:18:21.633Z,78.90
2023-04-22T22:20:26.796Z,79.40
2023-04-22T22:22:31.055Z,79.50
2023-04-22T22:24:35.527Z,80.40
2023-04-22T22:26:41.089Z,80.60
2023-04-22T22:28:44.646Z,80.30
2023-04-22T22:30:47.868Z,79.40
2023-04-22T22:32:51.389Z,79.50
2023-04-22T22:34:54.652Z,79.60
2023-04-22T22:36:59.459Z,79.40
2023-04-22T22:39:02.683Z,79.80
2023-04-22T22:41:05.893Z,79.70
2023-04-22T22:43:09.470Z,80.10
2023-04-22T22:45:13.192Z,80.30
2023-04-22T22:47:17.633Z,80.20
2023-04-22T22:49:20.981Z,80.80
2023-04-22T22:51:24.173Z,80.40
2023-04-22T22:53:28.873Z,80.30
2023-04-22T22:55:34.114Z,80.30
2023-04-22T22:57:37.312Z,80.40
2023-04-22T22:59:40.965Z,81.20
2023-04-22T23:01:44.484Z,81.00
2023-04-22T23:03:48.879Z,81.00
2023-04-22T23:05:52.093Z,81.30
2023-04-22T23:07:55.304Z,80.90
2023-04-22T23:09:59.972Z,81.40
2023-04-22T23:12:03.262Z,82.50
2023-04-22T23:14:09.835Z,82.30
2023-04-22T23:16:13.316Z,81.70
2023-04-22T23:18:18.702Z,81.50
2023-04-22T23:20:23.428Z,82.00
2023-04-22T23:22:27.797Z,82.60
2023-04-22T23:24:31.878Z,82.10
2023-04-22T23:26:37.345Z,82.30
2023-04-22T23:28:41.250Z,82.00
2023-04-22T23:30:47.405Z,82.80
2023-04-22T23:32:53.067Z,82.60
2023-04-22T23:34:59.245Z,81.70
2023-04-22T23:37:06.524Z,81.90
2023-04-22T23:39:09.959Z,81.90
2023-04-22T23:41:13.313Z,81.30
2023-04-22T23:43:18.239Z,81.50
2023-04-22T23:45:21.627Z,82.10
2023-04-22T23:47:24.759Z,82.00
2023-04-22T23:49:28.925Z,81.80
2023-04-22T23:51:32.143Z,81.60
2023-04-22T23:53:35.784Z,82.40
2023-04-22T23:55:39.831Z,82.80
2023-04-22T23:57:43.704Z,82.80
2023-04-22T23:59:49.529Z,83.70
